sensor_id;sensor_type;location;lat;lon;timestamp;temperature;humidity
59162;DHT22;44942;48.936;8.260;2023-02-28T00:00:37;20.70;43.90
59162;DHT22;44942;48.936;8.260;2023-02-28T00:05:38;20.70;43.40
59162;DHT22;44942;48.936;8.260;2023-02-28T00:10:38;20.80;43.40
59162;DHT22;44942;48.936;8.260;2023-02-28T00:15:39;20.70;43.40
59162;DHT22;44942;48.936;8.260;2023-02-28T00:20:40;20.70;43.40
59162;DHT22;44942;48.936;8.260;2023-02-28T00:25:40;20.70;43.50
59162;DHT22;44942;48.936;8.260;2023-02-28T00:30:41;20.70;43.50
59162;DHT22;44942;48.936;8.260;2023-02-28T00:35:41;20.70;43.50
59162;DHT22;44942;48.936;8.260;2023-02-28T00:40:42;20.70;43.50
59162;DHT22;44942;48.936;8.260;2023-02-28T00:45:43;20.70;43.60
59162;DHT22;44942;48.936;8.260;2023-02-28T00:50:44;20.70;43.60
59162;DHT22;44942;48.936;8.260;2023-02-28T00:55:44;20.70;43.60
59162;DHT22;44942;48.936;8.260;2023-02-28T01:00:45;20.70;43.60
59162;DHT22;44942;48.936;8.260;2023-02-28T01:05:49;20.70;43.60
59162;DHT22;44942;48.936;8.260;2023-02-28T01:10:50;20.60;43.50
59162;DHT22;44942;48.936;8.260;2023-02-28T01:15:52;20.70;43.60
59162;DHT22;44942;48.936;8.260;2023-02-28T01:20:54;20.60;43.60
59162;DHT22;44942;48.936;8.260;2023-02-28T01:25:55;20.60;43.60
59162;DHT22;44942;48.936;8.260;2023-02-28T01:30:55;20.60;43.60
59162;DHT22;44942;48.936;8.260;2023-02-28T01:36:04;20.60;43.60
59162;DHT22;44942;48.936;8.260;2023-02-28T01:41:06;20.60;43.60
59162;DHT22;44942;48.936;8.260;2023-02-28T01:46:06;20.60;43.60
59162;DHT22;44942;48.936;8.260;2023-02-28T01:51:13;20.60;43.70
59162;DHT22;44942;48.936;8.260;2023-02-28T01:56:19;20.60;43.70
59162;DHT22;44942;48.936;8.260;2023-02-28T02:01:21;20.60;43.70
59162;DHT22;44942;48.936;8.260;2023-02-28T02:06:26;20.60;43.60
59162;DHT22;44942;48.936;8.260;2023-02-28T02:11:27;20.60;43.80
59162;DHT22;44942;48.936;8.260;2023-02-28T02:22:29;20.60;44.50
59162;DHT22;44942;48.936;8.260;2023-02-28T02:33:17;20.60;43.70
59162;DHT22;44942;48.936;8.260;2023-02-28T02:38:37;20.60;43.80
59162;DHT22;44942;48.936;8.260;2023-02-28T02:49:16;20.50;43.90
59162;DHT22;44942;48.936;8.260;2023-02-28T02:54:24;20.50;44.00
59162;DHT22;44942;48.936;8.260;2023-02-28T02:59:30;20.50;44.00
59162;DHT22;44942;48.936;8.260;2023-02-28T03:04:34;20.50;44.00
59162;DHT22;44942;48.936;8.260;2023-02-28T03:09:35;20.50;44.00
59162;DHT22;44942;48.936;8.260;2023-02-28T03:15:17;20.50;44.00
59162;DHT22;44942;48.936;8.260;2023-02-28T03:20:35;20.50;44.00
59162;DHT22;44942;48.936;8.260;2023-02-28T03:25:59;20.50;44.00
59162;DHT22;44942;48.936;8.260;2023-02-28T03:31:35;20.50;44.10
59162;DHT22;44942;48.936;8.260;2023-02-28T03:36:38;20.50;44.10
59162;DHT22;44942;48.936;8.260;2023-02-28T03:41:56;20.50;44.10
59162;DHT22;44942;48.936;8.260;2023-02-28T03:47:05;20.50;44.00
59162;DHT22;44942;48.936;8.260;2023-02-28T03:52:08;20.50;44.10
59162;DHT22;44942;48.936;8.260;2023-02-28T03:57:13;20.40;44.10
59162;DHT22;44942;48.936;8.260;2023-02-28T04:02:16;20.40;44.10
59162;DHT22;44942;48.936;8.260;2023-02-28T04:07:17;20.40;44.10
59162;DHT22;44942;48.936;8.260;2023-02-28T04:12:18;20.40;44.10
59162;DHT22;44942;48.936;8.260;2023-02-28T04:17:18;20.40;44.10
59162;DHT22;44942;48.936;8.260;2023-02-28T04:22:19;20.40;44.10
59162;DHT22;44942;48.936;8.260;2023-02-28T04:27:20;20.40;44.20
59162;DHT22;44942;48.936;8.260;2023-02-28T04:32:21;20.40;44.20
59162;DHT22;44942;48.936;8.260;2023-02-28T04:37:22;20.40;44.20
59162;DHT22;44942;48.936;8.260;2023-02-28T04:42:28;20.40;44.20
59162;DHT22;44942;48.936;8.260;2023-02-28T04:47:35;20.40;44.20
59162;DHT22;44942;48.936;8.260;2023-02-28T04:52:36;20.40;44.30
59162;DHT22;44942;48.936;8.260;2023-02-28T04:57:36;20.30;44.20
59162;DHT22;44942;48.936;8.260;2023-02-28T05:02:38;20.40;44.30
59162;DHT22;44942;48.936;8.260;2023-02-28T05:07:39;20.30;44.30
59162;DHT22;44942;48.936;8.260;2023-02-28T05:12:40;20.40;44.40
59162;DHT22;44942;48.936;8.260;2023-02-28T05:17:41;20.40;44.30
59162;DHT22;44942;48.936;8.260;2023-02-28T05:22:42;20.30;44.30
59162;DHT22;44942;48.936;8.260;2023-02-28T05:27:43;20.30;44.30
59162;DHT22;44942;48.936;8.260;2023-02-28T05:32:50;20.30;44.30
59162;DHT22;44942;48.936;8.260;2023-02-28T05:37:50;20.30;44.30
59162;DHT22;44942;48.936;8.260;2023-02-28T05:42:51;20.30;44.40
59162;DHT22;44942;48.936;8.260;2023-02-28T05:47:55;20.30;44.40
59162;DHT22;44942;48.936;8.260;2023-02-28T05:52:56;20.30;44.60
59162;DHT22;44942;48.936;8.260;2023-02-28T05:57:56;20.30;44.50
59162;DHT22;44942;48.936;8.260;2023-02-28T06:02:57;20.20;44.40
59162;DHT22;44942;48.936;8.260;2023-02-28T06:08:01;20.20;44.40
59162;DHT22;44942;48.936;8.260;2023-02-28T06:13:03;20.20;44.90
59162;DHT22;44942;48.936;8.260;2023-02-28T06:18:04;20.20;44.50
59162;DHT22;44942;48.936;8.260;2023-02-28T06:23:05;20.20;44.50
59162;DHT22;44942;48.936;8.260;2023-02-28T06:28:06;20.20;44.50
59162;DHT22;44942;48.936;8.260;2023-02-28T06:33:29;20.20;44.40
59162;DHT22;44942;48.936;8.260;2023-02-28T06:38:31;20.20;44.50
59162;DHT22;44942;48.936;8.260;2023-02-28T06:43:35;20.20;44.50
59162;DHT22;44942;48.936;8.260;2023-02-28T06:48:36;20.20;44.50
59162;DHT22;44942;48.936;8.260;2023-02-28T06:53:36;20.20;43.70
59162;DHT22;44942;48.936;8.260;2023-02-28T06:58:37;18.50;38.80
59162;DHT22;44942;48.936;8.260;2023-02-28T07:03:39;18.90;40.50
59162;DHT22;44942;48.936;8.260;2023-02-28T07:08:40;19.20;40.80
59162;DHT22;44942;48.936;8.260;2023-02-28T07:13:41;19.40;41.40
59162;DHT22;44942;48.936;8.260;2023-02-28T07:18:41;19.60;41.80
59162;DHT22;44942;48.936;8.260;2023-02-28T07:23:42;19.60;42.10
59162;DHT22;44942;48.936;8.260;2023-02-28T07:28:44;19.70;42.30
59162;DHT22;44942;48.936;8.260;2023-02-28T07:33:45;19.70;42.40
59162;DHT22;44942;48.936;8.260;2023-02-28T07:38:47;19.70;42.60
59162;DHT22;44942;48.936;8.260;2023-02-28T07:43:54;19.80;42.80
59162;DHT22;44942;48.936;8.260;2023-02-28T07:48:55;19.80;42.80
59162;DHT22;44942;48.936;8.260;2023-02-28T07:53:59;19.80;42.90
59162;DHT22;44942;48.936;8.260;2023-02-28T07:59:00;19.80;43.00
59162;DHT22;44942;48.936;8.260;2023-02-28T08:04:01;19.80;43.10
59162;DHT22;44942;48.936;8.260;2023-02-28T08:09:02;19.80;43.10
59162;DHT22;44942;48.936;8.260;2023-02-28T08:14:03;19.80;43.10
59162;DHT22;44942;48.936;8.260;2023-02-28T08:19:03;19.80;43.20
59162;DHT22;44942;48.936;8.260;2023-02-28T08:24:04;19.80;43.30
59162;DHT22;44942;48.936;8.260;2023-02-28T08:29:05;19.80;43.40
59162;DHT22;44942;48.936;8.260;2023-02-28T08:34:09;19.80;43.40
59162;DHT22;44942;48.936;8.260;2023-02-28T08:39:11;19.80;43.50
59162;DHT22;44942;48.936;8.260;2023-02-28T08:44:12;19.80;43.50
59162;DHT22;44942;48.936;8.260;2023-02-28T08:49:12;19.80;43.50
59162;DHT22;44942;48.936;8.260;2023-02-28T08:54:13;19.80;43.50
59162;DHT22;44942;48.936;8.260;2023-02-28T08:59:16;19.80;43.50
59162;DHT22;44942;48.936;8.260;2023-02-28T09:04:17;19.80;43.50
59162;DHT22;44942;48.936;8.260;2023-02-28T09:09:17;19.80;43.50
59162;DHT22;44942;48.936;8.260;2023-02-28T09:14:18;19.80;43.50
59162;DHT22;44942;48.936;8.260;2023-02-28T09:19:18;19.80;43.40
59162;DHT22;44942;48.936;8.260;2023-02-28T09:24:19;19.80;43.40
59162;DHT22;44942;48.936;8.260;2023-02-28T09:29:20;19.80;43.30
59162;DHT22;44942;48.936;8.260;2023-02-28T09:34:21;19.70;43.20
59162;DHT22;44942;48.936;8.260;2023-02-28T09:39:22;19.70;43.20
59162;DHT22;44942;48.936;8.260;2023-02-28T09:44:44;19.70;43.20
59162;DHT22;44942;48.936;8.260;2023-02-28T09:49:46;19.70;43.10
59162;DHT22;44942;48.936;8.260;2023-02-28T09:54:47;19.70;43.10
59162;DHT22;44942;48.936;8.260;2023-02-28T10:00:29;19.70;43.10
59162;DHT22;44942;48.936;8.260;2023-02-28T10:05:41;19.70;43.00
59162;DHT22;44942;48.936;8.260;2023-02-28T10:15:50;19.70;42.90
59162;DHT22;44942;48.936;8.260;2023-02-28T10:20:51;19.70;42.90
59162;DHT22;44942;48.936;8.260;2023-02-28T10:26:04;19.70;42.80
59162;DHT22;44942;48.936;8.260;2023-02-28T10:31:12;19.70;42.80
59162;DHT22;44942;48.936;8.260;2023-02-28T10:36:17;19.70;42.80
59162;DHT22;44942;48.936;8.260;2023-02-28T10:41:31;19.60;42.60
59162;DHT22;44942;48.936;8.260;2023-02-28T10:46:36;19.70;42.60
59162;DHT22;44942;48.936;8.260;2023-02-28T10:51:40;19.60;42.60
59162;DHT22;44942;48.936;8.260;2023-02-28T10:56:41;19.70;42.60
59162;DHT22;44942;48.936;8.260;2023-02-28T11:01:44;19.60;42.60
59162;DHT22;44942;48.936;8.260;2023-02-28T11:06:46;19.60;42.50
59162;DHT22;44942;48.936;8.260;2023-02-28T11:11:47;19.60;42.50
59162;DHT22;44942;48.936;8.260;2023-02-28T11:16:50;19.60;42.50
59162;DHT22;44942;48.936;8.260;2023-02-28T11:21:59;19.60;42.50
59162;DHT22;44942;48.936;8.260;2023-02-28T11:27:00;19.60;42.40
59162;DHT22;44942;48.936;8.260;2023-02-28T11:32:23;19.60;42.50
59162;DHT22;44942;48.936;8.260;2023-02-28T11:37:24;19.60;42.40
59162;DHT22;44942;48.936;8.260;2023-02-28T11:42:46;19.60;42.40
59162;DHT22;44942;48.936;8.260;2023-02-28T11:53:35;19.60;42.30
59162;DHT22;44942;48.936;8.260;2023-02-28T12:09:12;19.60;42.30
59162;DHT22;44942;48.936;8.260;2023-02-28T12:20:02;19.60;42.30
59162;DHT22;44942;48.936;8.260;2023-02-28T12:30:32;19.50;42.20
59162;DHT22;44942;48.936;8.260;2023-02-28T12:35:42;19.50;42.10
59162;DHT22;44942;48.936;8.260;2023-02-28T12:41:09;19.50;42.10
59162;DHT22;44942;48.936;8.260;2023-02-28T12:47:15;19.50;42.10
59162;DHT22;44942;48.936;8.260;2023-02-28T12:51:46;19.50;42.10
59162;DHT22;44942;48.936;8.260;2023-02-28T12:57:15;19.50;42.10
59162;DHT22;44942;48.936;8.260;2023-02-28T13:03:16;19.50;42.40
59162;DHT22;44942;48.936;8.260;2023-02-28T13:13:22;19.50;42.10
59162;DHT22;44942;48.936;8.260;2023-02-28T13:18:32;19.50;42.10
59162;DHT22;44942;48.936;8.260;2023-02-28T13:39:44;19.50;42.00
59162;DHT22;44942;48.936;8.260;2023-02-28T13:44:24;19.50;42.00
59162;DHT22;44942;48.936;8.260;2023-02-28T13:49:29;19.50;42.00
59162;DHT22;44942;48.936;8.260;2023-02-28T14:05:33;19.50;42.00
59162;DHT22;44942;48.936;8.260;2023-02-28T14:10:43;19.50;42.00
59162;DHT22;44942;48.936;8.260;2023-02-28T14:15:47;19.50;42.00
59162;DHT22;44942;48.936;8.260;2023-02-28T14:20:53;19.40;42.00
59162;DHT22;44942;48.936;8.260;2023-02-28T14:26:25;19.50;42.00
59162;DHT22;44942;48.936;8.260;2023-02-28T14:31:34;19.40;41.90
59162;DHT22;44942;48.936;8.260;2023-02-28T14:36:39;19.40;41.90
59162;DHT22;44942;48.936;8.260;2023-02-28T14:41:42;19.50;42.00
59162;DHT22;44942;48.936;8.260;2023-02-28T14:46:44;19.40;42.00
59162;DHT22;44942;48.936;8.260;2023-02-28T14:51:45;19.40;41.90
59162;DHT22;44942;48.936;8.260;2023-02-28T14:56:49;19.40;41.90
59162;DHT22;44942;48.936;8.260;2023-02-28T15:01:50;19.40;41.90
59162;DHT22;44942;48.936;8.260;2023-02-28T15:07:12;19.40;41.80
59162;DHT22;44942;48.936;8.260;2023-02-28T15:12:14;19.50;41.90
59162;DHT22;44942;48.936;8.260;2023-02-28T15:17:22;19.40;41.90
59162;DHT22;44942;48.936;8.260;2023-02-28T15:22:35;19.50;41.90
59162;DHT22;44942;48.936;8.260;2023-02-28T15:27:44;19.50;41.80
59162;DHT22;44942;48.936;8.260;2023-02-28T15:33:02;19.50;41.90
59162;DHT22;44942;48.936;8.260;2023-02-28T15:38:23;19.50;41.90
59162;DHT22;44942;48.936;8.260;2023-02-28T15:43:33;19.50;41.90
59162;DHT22;44942;48.936;8.260;2023-02-28T15:48:43;19.40;41.80
59162;DHT22;44942;48.936;8.260;2023-02-28T15:53:55;19.50;41.90
59162;DHT22;44942;48.936;8.260;2023-02-28T15:58:58;19.40;41.80
59162;DHT22;44942;48.936;8.260;2023-02-28T16:04:05;19.40;41.90
59162;DHT22;44942;48.936;8.260;2023-02-28T16:09:09;19.40;41.90
59162;DHT22;44942;48.936;8.260;2023-02-28T16:14:19;19.40;41.90
59162;DHT22;44942;48.936;8.260;2023-02-28T16:19:20;19.40;41.80
59162;DHT22;44942;48.936;8.260;2023-02-28T16:24:21;19.40;41.90
59162;DHT22;44942;48.936;8.260;2023-02-28T16:29:29;19.40;42.00
59162;DHT22;44942;48.936;8.260;2023-02-28T16:34:31;19.40;42.00
59162;DHT22;44942;48.936;8.260;2023-02-28T16:39:32;19.40;42.00
59162;DHT22;44942;48.936;8.260;2023-02-28T16:44:35;19.40;42.10
59162;DHT22;44942;48.936;8.260;2023-02-28T16:49:35;19.50;42.20
59162;DHT22;44942;48.936;8.260;2023-02-28T16:54:36;19.50;42.20
59162;DHT22;44942;48.936;8.260;2023-02-28T16:59:36;19.50;42.30
59162;DHT22;44942;48.936;8.260;2023-02-28T17:04:37;19.50;42.40
59162;DHT22;44942;48.936;8.260;2023-02-28T17:09:38;19.50;42.40
59162;DHT22;44942;48.936;8.260;2023-02-28T17:14:41;19.50;42.40
59162;DHT22;44942;48.936;8.260;2023-02-28T17:19:42;19.50;42.40
59162;DHT22;44942;48.936;8.260;2023-02-28T17:24:44;19.50;42.40
59162;DHT22;44942;48.936;8.260;2023-02-28T17:29:45;19.50;42.50
59162;DHT22;44942;48.936;8.260;2023-02-28T17:34:47;19.50;42.40
59162;DHT22;44942;48.936;8.260;2023-02-28T17:39:47;19.50;42.50
59162;DHT22;44942;48.936;8.260;2023-02-28T17:44:48;19.50;42.40
59162;DHT22;44942;48.936;8.260;2023-02-28T17:49:49;19.50;42.40
59162;DHT22;44942;48.936;8.260;2023-02-28T17:54:49;19.60;42.60
59162;DHT22;44942;48.936;8.260;2023-02-28T17:59:50;19.60;42.50
59162;DHT22;44942;48.936;8.260;2023-02-28T18:04:50;19.60;42.50
59162;DHT22;44942;48.936;8.260;2023-02-28T18:09:51;19.60;42.60
59162;DHT22;44942;48.936;8.260;2023-02-28T18:14:51;19.60;42.50
59162;DHT22;44942;48.936;8.260;2023-02-28T18:19:52;19.60;42.50
59162;DHT22;44942;48.936;8.260;2023-02-28T18:24:52;19.60;43.00
59162;DHT22;44942;48.936;8.260;2023-02-28T18:29:53;19.60;42.50
59162;DHT22;44942;48.936;8.260;2023-02-28T18:34:53;19.60;42.40
59162;DHT22;44942;48.936;8.260;2023-02-28T18:39:54;19.60;42.50
59162;DHT22;44942;48.936;8.260;2023-02-28T18:44:55;19.60;42.50
59162;DHT22;44942;48.936;8.260;2023-02-28T18:49:55;19.60;42.50
59162;DHT22;44942;48.936;8.260;2023-02-28T18:54:56;19.60;42.40
59162;DHT22;44942;48.936;8.260;2023-02-28T18:59:56;19.60;42.50
59162;DHT22;44942;48.936;8.260;2023-02-28T19:04:57;19.60;42.40
59162;DHT22;44942;48.936;8.260;2023-02-28T19:09:57;19.60;42.40
59162;DHT22;44942;48.936;8.260;2023-02-28T19:14:58;19.60;42.40
59162;DHT22;44942;48.936;8.260;2023-02-28T19:20:03;19.60;42.40
59162;DHT22;44942;48.936;8.260;2023-02-28T19:25:05;19.60;42.40
59162;DHT22;44942;48.936;8.260;2023-02-28T19:30:06;19.60;42.50
59162;DHT22;44942;48.936;8.260;2023-02-28T19:40:18;19.60;42.30
59162;DHT22;44942;48.936;8.260;2023-02-28T19:45:22;19.60;42.40
59162;DHT22;44942;48.936;8.260;2023-02-28T19:50:23;19.60;42.30
59162;DHT22;44942;48.936;8.260;2023-02-28T19:55:23;19.60;42.30
59162;DHT22;44942;48.936;8.260;2023-02-28T20:00:26;19.60;42.30
59162;DHT22;44942;48.936;8.260;2023-02-28T20:05:27;19.60;42.30
59162;DHT22;44942;48.936;8.260;2023-02-28T20:10:28;19.60;42.30
59162;DHT22;44942;48.936;8.260;2023-02-28T20:15:30;19.60;42.30
59162;DHT22;44942;48.936;8.260;2023-02-28T20:20:31;19.60;42.30
59162;DHT22;44942;48.936;8.260;2023-02-28T20:25:38;19.60;42.30
59162;DHT22;44942;48.936;8.260;2023-02-28T20:30:40;19.60;42.30
59162;DHT22;44942;48.936;8.260;2023-02-28T20:35:41;19.60;42.40
59162;DHT22;44942;48.936;8.260;2023-02-28T20:40:42;19.60;42.30
59162;DHT22;44942;48.936;8.260;2023-02-28T20:45:56;19.60;42.30
59162;DHT22;44942;48.936;8.260;2023-02-28T20:51:04;19.60;42.40
59162;DHT22;44942;48.936;8.260;2023-02-28T20:56:07;19.60;42.50
59162;DHT22;44942;48.936;8.260;2023-02-28T21:01:21;19.60;42.50
59162;DHT22;44942;48.936;8.260;2023-02-28T21:06:27;19.60;42.60
59162;DHT22;44942;48.936;8.260;2023-02-28T21:11:29;19.60;42.60
59162;DHT22;44942;48.936;8.260;2023-02-28T21:16:31;19.60;42.50
59162;DHT22;44942;48.936;8.260;2023-02-28T21:21:34;19.60;42.50
59162;DHT22;44942;48.936;8.260;2023-02-28T21:26:37;19.60;42.50
59162;DHT22;44942;48.936;8.260;2023-02-28T21:31:38;19.60;42.40
59162;DHT22;44942;48.936;8.260;2023-02-28T21:36:41;19.60;42.50
59162;DHT22;44942;48.936;8.260;2023-02-28T21:41:44;19.60;42.50
59162;DHT22;44942;48.936;8.260;2023-02-28T21:46:46;19.60;42.50
59162;DHT22;44942;48.936;8.260;2023-02-28T21:51:47;19.60;42.50
59162;DHT22;44942;48.936;8.260;2023-02-28T21:56:48;19.60;42.60
59162;DHT22;44942;48.936;8.260;2023-02-28T22:01:50;19.60;42.50
59162;DHT22;44942;48.936;8.260;2023-02-28T22:06:53;19.60;42.50
59162;DHT22;44942;48.936;8.260;2023-02-28T22:11:56;19.70;42.60
59162;DHT22;44942;48.936;8.260;2023-02-28T22:16:59;19.70;42.70
59162;DHT22;44942;48.936;8.260;2023-02-28T22:22:03;19.70;43.50
59162;DHT22;44942;48.936;8.260;2023-02-28T22:27:03;19.70;42.90
59162;DHT22;44942;48.936;8.260;2023-02-28T22:32:07;19.70;43.00
59162;DHT22;44942;48.936;8.260;2023-02-28T22:37:08;19.70;43.00
59162;DHT22;44942;48.936;8.260;2023-02-28T22:42:08;19.70;43.10
59162;DHT22;44942;48.936;8.260;2023-02-28T22:47:09;19.70;43.00
59162;DHT22;44942;48.936;8.260;2023-02-28T22:52:10;19.70;43.10
59162;DHT22;44942;48.936;8.260;2023-02-28T22:57:10;19.70;43.00
59162;DHT22;44942;48.936;8.260;2023-02-28T23:02:11;19.70;43.00
59162;DHT22;44942;48.936;8.260;2023-02-28T23:07:13;19.70;43.00
59162;DHT22;44942;48.936;8.260;2023-02-28T23:12:14;19.70;43.00
59162;DHT22;44942;48.936;8.260;2023-02-28T23:17:15;19.70;43.00
59162;DHT22;44942;48.936;8.260;2023-02-28T23:22:15;19.70;43.10
59162;DHT22;44942;48.936;8.260;2023-02-28T23:27:16;19.70;43.10
59162;DHT22;44942;48.936;8.260;2023-02-28T23:32:16;19.70;43.10
59162;DHT22;44942;48.936;8.260;2023-02-28T23:37:17;19.70;43.10
59162;DHT22;44942;48.936;8.260;2023-02-28T23:42:18;19.70;43.10
59162;DHT22;44942;48.936;8.260;2023-02-28T23:47:19;19.70;43.10
59162;DHT22;44942;48.936;8.260;2023-02-28T23:52:19;19.70;43.10
59162;DHT22;44942;48.936;8.260;2023-02-28T23:57:20;19.70;43.20
